createdAt,value
2022-11-24T00:01:23.022Z,7.48
2022-11-24T00:03:56.024Z,7.41
2022-11-24T00:06:24.960Z,7.47
2022-11-24T00:08:53.720Z,7.45
2022-11-24T00:11:24.061Z,7.46
2022-11-24T00:13:52.287Z,7.44
2022-11-24T00:16:23.888Z,7.46
2022-11-24T00:18:53.573Z,7.31
2022-11-24T00:21:22.255Z,7.40
2022-11-24T00:23:51.289Z,7.24
2022-11-24T00:26:20.887Z,7.30
2022-11-24T00:28:50.797Z,7.35
2022-11-24T00:31:21.924Z,7.28
2022-11-24T00:33:52.295Z,7.17
2022-11-24T00:36:22.359Z,7.14
2022-11-24T00:38:54.803Z,7.09
2022-11-24T00:41:23.742Z,7.10
2022-11-24T00:43:52.053Z,7.11
2022-11-24T00:46:22.010Z,7.18
2022-11-24T00:48:50.680Z,7.08
2022-11-24T00:51:20.233Z,7.04
2022-11-24T00:53:48.863Z,7.05
2022-11-24T00:56:17.195Z,7.08
2022-11-24T00:58:45.300Z,6.99
2022-11-24T01:01:15.187Z,6.97
2022-11-24T01:03:46.721Z,7.01
2022-11-24T01:06:16.608Z,6.99
2022-11-24T01:08:45.443Z,6.99
2022-11-24T01:11:15.759Z,6.98
2022-11-24T01:13:45.508Z,7.10
2022-11-24T01:16:19.642Z,7.17
2022-11-24T01:18:49.746Z,7.17
2022-11-24T01:21:18.496Z,7.10
2022-11-24T01:23:46.643Z,7.09
2022-11-24T01:26:16.657Z,7.16
2022-11-24T01:28:47.349Z,7.15
2022-11-24T01:31:17.126Z,7.16
2022-11-24T01:33:45.306Z,7.15
2022-11-24T01:36:14.987Z,7.13
2022-11-24T01:38:43.133Z,7.09
2022-11-24T01:41:14.396Z,7.06
2022-11-24T01:43:43.028Z,7.06
2022-11-24T01:46:19.222Z,7.02
2022-11-24T01:48:52.951Z,7.06
2022-11-24T01:51:23.689Z,7.02
2022-11-24T01:53:58.607Z,7.01
2022-11-24T01:56:28.747Z,7.06
2022-11-24T01:58:59.731Z,7.03
2022-11-24T02:01:29.367Z,6.99
2022-11-24T02:03:58.428Z,7.03
2022-11-24T02:06:30.422Z,7.09
2022-11-24T02:09:03.340Z,7.16
2022-11-24T02:11:36.200Z,7.14
2022-11-24T02:14:06.284Z,7.22
2022-11-24T02:16:36.778Z,7.34
2022-11-24T02:19:08.565Z,7.24
2022-11-24T02:21:38.017Z,7.30
2022-11-24T02:24:14.460Z,7.27
2022-11-24T02:26:47.239Z,7.35
2022-11-24T02:29:16.310Z,7.33
2022-11-24T02:31:48.751Z,7.44
2022-11-24T02:34:16.877Z,7.34
2022-11-24T02:36:45.132Z,7.39
2022-11-24T02:39:14.651Z,7.39
2022-11-24T02:41:47.832Z,7.44
2022-11-24T02:44:18.868Z,7.56
2022-11-24T02:46:46.986Z,7.61
2022-11-24T02:49:16.183Z,7.62
2022-11-24T02:51:44.315Z,7.61
2022-11-24T02:54:12.401Z,7.66
2022-11-24T02:56:40.584Z,7.75
2022-11-24T02:59:10.062Z,7.70
2022-11-24T03:01:38.184Z,7.70
2022-11-24T03:04:06.449Z,7.78
2022-11-24T03:06:34.606Z,7.73
2022-11-24T03:09:02.795Z,7.71
2022-11-24T03:11:30.978Z,7.82
2022-11-24T03:13:59.129Z,7.76
2022-11-24T03:16:28.649Z,7.76
2022-11-24T03:18:56.723Z,7.83
2022-11-24T03:21:24.826Z,7.80
2022-11-24T03:23:53.373Z,7.83
2022-11-24T03:26:23.234Z,7.86
2022-11-24T03:28:51.414Z,7.85
2022-11-24T03:31:19.720Z,7.92
2022-11-24T03:33:49.282Z,7.90
2022-11-24T03:36:17.852Z,7.94
2022-11-24T03:38:46.047Z,7.91
2022-11-24T03:41:14.466Z,7.96
2022-11-24T03:43:44.313Z,7.94
2022-11-24T03:46:12.870Z,7.91
2022-11-24T03:48:41.475Z,7.99
2022-11-24T03:51:11.968Z,7.97
2022-11-24T03:53:40.459Z,7.91
2022-11-24T03:56:08.750Z,7.93
2022-11-24T03:58:37.098Z,7.85
2022-11-24T04:01:05.268Z,7.82
2022-11-24T04:03:33.382Z,7.81
2022-11-24T04:06:01.917Z,7.80
2022-11-24T04:08:31.439Z,7.77
2022-11-24T04:10:59.546Z,7.88
2022-11-24T04:13:28.066Z,7.84
2022-11-24T04:15:59.170Z,7.92
2022-11-24T04:18:27.150Z,7.90
2022-11-24T04:20:55.104Z,7.89
2022-11-24T04:23:23.424Z,7.77
2022-11-24T04:25:52.726Z,7.81
2022-11-24T04:28:20.757Z,7.74
2022-11-24T04:30:48.671Z,7.71
2022-11-24T04:33:16.745Z,7.67
2022-11-24T04:35:44.706Z,7.73
2022-11-24T04:38:12.640Z,7.76
2022-11-24T04:40:40.627Z,7.72
2022-11-24T04:43:10.375Z,7.84
2022-11-24T04:45:38.551Z,7.78
2022-11-24T04:48:07.137Z,7.88
2022-11-24T04:50:35.134Z,7.87
2022-11-24T04:53:03.083Z,7.88
2022-11-24T04:55:31.079Z,7.95
2022-11-24T04:57:59.032Z,7.85
2022-11-24T05:00:28.335Z,7.89
2022-11-24T05:02:56.446Z,7.84
2022-11-24T05:05:24.410Z,7.83
2022-11-24T05:07:52.445Z,7.71
2022-11-24T05:10:38.683Z,7.71
2022-11-24T05:13:08.655Z,7.67
2022-11-24T05:15:39.809Z,7.57
2022-11-24T05:18:08.605Z,7.48
2022-11-24T05:20:36.807Z,7.40
2022-11-24T05:23:06.278Z,7.32
2022-11-24T05:25:34.683Z,7.26
2022-11-24T05:28:04.009Z,7.23
2022-11-24T05:30:32.982Z,7.15
2022-11-24T05:33:05.940Z,7.12
2022-11-24T05:35:34.299Z,7.13
2022-11-24T05:38:02.188Z,7.05
2022-11-24T05:40:30.431Z,7.13
2022-11-24T05:42:58.529Z,7.13
2022-11-24T05:45:26.438Z,7.08
2022-11-24T05:47:55.095Z,7.10
2022-11-24T05:50:24.416Z,7.03
2022-11-24T05:52:52.327Z,6.96
2022-11-24T05:55:20.614Z,6.93
2022-11-24T05:57:48.773Z,6.96
2022-11-24T06:00:19.991Z,6.82
2022-11-24T06:02:48.404Z,6.81
2022-11-24T06:05:16.672Z,6.92
2022-11-24T06:07:46.400Z,6.85
2022-11-24T06:10:15.106Z,6.94
2022-11-24T06:12:43.225Z,7.01
2022-11-24T06:15:12.241Z,7.08
2022-11-24T06:17:41.024Z,7.10
2022-11-24T06:20:10.318Z,7.01
2022-11-24T06:22:38.564Z,6.98
2022-11-24T06:25:09.423Z,7.03
2022-11-24T06:27:37.350Z,6.98
2022-11-24T06:30:06.511Z,6.95
2022-11-24T06:32:34.519Z,6.90
2022-11-24T06:35:05.176Z,6.93
2022-11-24T06:37:33.244Z,6.95
2022-11-24T06:40:01.190Z,7.02
2022-11-24T06:42:30.672Z,7.10
2022-11-24T06:44:58.674Z,7.19
2022-11-24T06:47:26.609Z,7.32
2022-11-24T06:49:54.706Z,7.36
2022-11-24T06:52:22.678Z,7.44
2022-11-24T06:54:50.678Z,7.39
2022-11-24T06:57:18.715Z,7.42
2022-11-24T06:59:48.059Z,7.49
2022-11-24T07:02:16.059Z,7.50
2022-11-24T07:04:43.987Z,7.48
2022-11-24T07:07:12.665Z,7.52
2022-11-24T07:09:40.714Z,7.64
2022-11-24T07:12:09.066Z,7.73
2022-11-24T07:14:37.337Z,7.65
2022-11-24T07:17:07.399Z,7.69
2022-11-24T07:19:35.355Z,7.73
2022-11-24T07:22:03.466Z,7.87
2022-11-24T07:24:31.580Z,7.81
2022-11-24T07:26:59.614Z,7.95
2022-11-24T07:29:27.549Z,7.94
2022-11-24T07:31:57.578Z,7.90
2022-11-24T07:34:28.980Z,7.88
2022-11-24T07:36:57.838Z,7.89
2022-11-24T07:39:25.944Z,7.96
2022-11-24T07:41:53.946Z,7.96
2022-11-24T07:44:21.971Z,7.94
2022-11-24T07:46:51.269Z,7.91
2022-11-24T07:49:19.306Z,7.88
2022-11-24T07:51:48.625Z,8.03
2022-11-24T07:54:16.659Z,8.09
2022-11-24T07:56:44.679Z,8.10
2022-11-24T07:59:12.595Z,8.17
2022-11-24T08:01:40.911Z,8.14
2022-11-24T08:04:09.094Z,8.41
2022-11-24T08:06:40.829Z,8.56
2022-11-24T08:09:12.608Z,8.64
2022-11-24T08:11:40.693Z,8.55
2022-11-24T08:14:11.763Z,8.68
2022-11-24T08:16:40.164Z,8.58
2022-11-24T08:19:08.416Z,8.70
2022-11-24T08:21:36.509Z,8.87
2022-11-24T08:24:04.950Z,8.82
2022-11-24T08:26:34.430Z,8.81
2022-11-24T08:29:02.500Z,8.95
2022-11-24T08:31:34.246Z,8.83
2022-11-24T08:34:03.725Z,8.68
2022-11-24T08:36:32.506Z,8.78
2022-11-24T08:39:01.909Z,8.94
2022-11-24T08:41:30.814Z,9.03
2022-11-24T08:44:00.172Z,9.18
2022-11-24T08:46:28.287Z,9.36
2022-11-24T08:48:56.716Z,9.50
2022-11-24T08:51:27.010Z,9.62
2022-11-24T08:53:56.763Z,9.68
2022-11-24T08:56:25.206Z,9.79
2022-11-24T08:59:01.104Z,9.75
2022-11-24T09:01:30.229Z,9.72
2022-11-24T09:03:58.625Z,10.30
2022-11-24T09:06:30.757Z,10.66
2022-11-24T09:08:59.761Z,10.29
2022-11-24T09:11:30.758Z,10.26
2022-11-24T09:14:00.105Z,11.79
2022-11-24T09:16:30.015Z,11.42
2022-11-24T09:18:59.870Z,11.55
2022-11-24T09:21:27.853Z,11.38
2022-11-24T09:23:57.089Z,13.85
2022-11-24T09:26:26.896Z,15.94
2022-11-24T09:28:55.941Z,14.83
2022-11-24T09:31:27.462Z,13.43
2022-11-24T09:33:56.036Z,12.18
2022-11-24T09:36:24.540Z,11.54
2022-11-24T09:38:52.740Z,11.50
2022-11-24T09:41:55.873Z,11.29
2022-11-24T09:45:02.026Z,11.38
2022-11-24T09:47:43.318Z,11.66
2022-11-24T09:50:15.931Z,11.40
2022-11-24T09:52:50.526Z,11.19
2022-11-24T09:55:35.833Z,11.05
2022-11-24T09:58:25.571Z,11.12
2022-11-24T10:00:55.662Z,11.83
2022-11-24T10:03:30.948Z,13.40
2022-11-24T10:06:01.750Z,16.61
2022-11-24T10:08:49.110Z,19.08
2022-11-24T10:11:29.467Z,16.24
2022-11-24T10:14:25.310Z,14.65
2022-11-24T10:16:58.550Z,18.18
2022-11-24T10:19:41.400Z,21.79
2022-11-24T10:22:26.063Z,22.74
2022-11-24T10:25:08.482Z,19.85
2022-11-24T10:27:41.127Z,18.67
2022-11-24T10:30:16.927Z,18.46
2022-11-24T10:32:48.158Z,19.40
2022-11-24T10:35:20.593Z,17.82
2022-11-24T10:37:57.528Z,16.97
2022-11-24T10:43:22.618Z,16.12
2022-11-24T10:45:51.617Z,16.25
2022-11-24T10:48:22.396Z,17.15
2022-11-24T10:50:55.265Z,17.78
2022-11-24T10:53:27.841Z,16.52
2022-11-24T10:56:01.827Z,16.16
2022-11-24T10:58:37.386Z,16.35
2022-11-24T11:01:22.395Z,15.73
2022-11-24T11:03:52.861Z,14.55
2022-11-24T11:06:25.577Z,13.65
2022-11-24T11:09:19.352Z,14.34
2022-11-24T11:11:48.712Z,14.20
2022-11-24T11:14:31.500Z,14.50
2022-11-24T11:17:00.092Z,15.10
2022-11-24T11:19:58.438Z,15.46
2022-11-24T11:22:29.658Z,14.21
2022-11-24T11:25:22.701Z,13.20
2022-11-24T11:27:51.125Z,13.31
2022-11-24T11:36:12.054Z,12.93
2022-11-24T11:38:44.181Z,12.71
2022-11-24T11:41:20.436Z,12.46
2022-11-24T11:43:57.996Z,12.47
2022-11-24T11:46:32.043Z,12.44
2022-11-24T11:49:00.211Z,12.46
2022-11-24T11:51:40.461Z,12.72
2022-11-24T11:54:20.029Z,12.52
2022-11-24T11:56:50.652Z,12.76
2022-11-24T11:59:49.840Z,12.75
2022-11-24T12:02:53.698Z,12.57
2022-11-24T12:05:30.942Z,12.65
2022-11-24T12:08:17.571Z,12.76
2022-11-24T12:11:02.203Z,12.89
2022-11-24T12:14:07.203Z,12.88
2022-11-24T12:16:46.472Z,12.95
2022-11-24T12:19:32.958Z,13.03
2022-11-24T12:22:08.942Z,12.61
2022-11-24T12:24:46.453Z,12.75
2022-11-24T12:27:27.385Z,12.49
2022-11-24T12:30:06.017Z,12.52
2022-11-24T12:32:54.919Z,12.80
2022-11-24T12:35:30.155Z,12.70
2022-11-24T12:38:06.548Z,12.69
2022-11-24T12:40:47.331Z,13.16
2022-11-24T12:43:22.384Z,13.04
2022-11-24T12:46:00.250Z,13.31
2022-11-24T12:48:44.155Z,13.32
2022-11-24T12:51:19.309Z,12.94
2022-11-24T12:53:49.535Z,13.13
2022-11-24T12:56:21.799Z,13.13
2022-11-24T12:58:57.203Z,12.48
2022-11-24T13:01:34.824Z,12.48
2022-11-24T13:04:14.045Z,12.19
2022-11-24T13:06:52.926Z,12.39
2022-11-24T13:09:21.503Z,12.18
2022-11-24T13:11:51.430Z,11.93
2022-11-24T13:14:23.753Z,12.19
2022-11-24T13:17:27.964Z,11.98
2022-11-24T13:19:44.774Z,11.89
2022-11-24T13:22:19.541Z,11.89
2022-11-24T13:25:12.135Z,11.88
2022-11-24T13:27:43.289Z,12.15
2022-11-24T13:30:51.762Z,12.27
2022-11-24T13:33:40.523Z,12.11
2022-11-24T13:36:30.518Z,12.02
2022-11-24T13:38:59.790Z,11.95
2022-11-24T13:42:08.288Z,11.73
2022-11-24T13:44:53.285Z,11.68
2022-11-24T13:47:45.230Z,11.56
2022-11-24T13:50:26.288Z,11.43
2022-11-24T13:53:01.726Z,11.45
2022-11-24T13:55:34.903Z,11.45
2022-11-24T13:58:28.451Z,11.22
2022-11-24T14:01:15.569Z,11.23
2022-11-24T14:04:21.565Z,11.15
2022-11-24T14:06:42.542Z,11.01
2022-11-24T14:09:24.112Z,11.21
2022-11-24T14:12:01.082Z,11.17
2022-11-24T14:14:29.615Z,11.03
2022-11-24T14:17:08.894Z,11.11
2022-11-24T14:19:36.827Z,11.20
2022-11-24T14:22:08.444Z,11.26
2022-11-24T14:24:41.213Z,11.19
2022-11-24T14:27:16.322Z,11.22
2022-11-24T14:29:55.803Z,11.24
2022-11-24T14:32:24.575Z,10.96
2022-11-24T14:34:54.041Z,11.26
2022-11-24T14:37:23.860Z,11.13
2022-11-24T14:39:52.082Z,10.95
2022-11-24T14:42:22.964Z,11.08
2022-11-24T14:44:55.565Z,11.00
2022-11-24T14:47:31.196Z,10.90
2022-11-24T14:50:12.665Z,11.02
2022-11-24T14:52:50.888Z,11.00
2022-11-24T14:55:27.997Z,11.08
2022-11-24T14:57:56.199Z,11.03
2022-11-24T15:00:29.255Z,10.88
2022-11-24T15:03:13.443Z,10.71
2022-11-24T15:06:00.573Z,10.69
2022-11-24T15:08:36.847Z,10.58
2022-11-24T15:11:07.781Z,10.55
2022-11-24T15:13:38.866Z,10.54
2022-11-24T15:16:15.470Z,10.66
2022-11-24T15:18:45.102Z,10.62
2022-11-24T15:21:18.866Z,10.70
2022-11-24T15:24:06.857Z,10.71
2022-11-24T15:26:40.242Z,10.59
2022-11-24T15:29:10.067Z,10.61
2022-11-24T15:31:38.331Z,10.61
2022-11-24T15:34:06.396Z,10.59
2022-11-24T15:36:34.408Z,10.65
2022-11-24T15:39:03.640Z,10.54
2022-11-24T15:41:33.286Z,10.34
2022-11-24T15:44:01.683Z,10.16
2022-11-24T15:46:37.682Z,10.28
2022-11-24T15:49:07.191Z,10.18
2022-11-24T15:51:36.984Z,10.00
2022-11-24T15:54:07.255Z,9.98
2022-11-24T15:56:36.662Z,9.97
2022-11-24T15:59:05.533Z,10.11
2022-11-24T16:01:35.217Z,10.14
2022-11-24T16:04:03.622Z,10.14
2022-11-24T16:06:33.413Z,10.20
2022-11-24T16:09:01.379Z,10.11
2022-11-24T16:11:30.866Z,10.19
2022-11-24T16:13:58.991Z,10.26
2022-11-24T16:16:29.615Z,10.24
2022-11-24T16:18:57.632Z,10.33
2022-11-24T16:21:25.686Z,10.30
2022-11-24T16:23:53.676Z,10.37
2022-11-24T16:26:21.675Z,10.16
2022-11-24T16:28:51.042Z,10.24
2022-11-24T16:31:19.785Z,10.24
2022-11-24T16:33:47.936Z,10.28
2022-11-24T16:36:16.312Z,10.22
2022-11-24T16:38:44.883Z,10.29
2022-11-24T16:41:13.159Z,10.23
2022-11-24T16:43:41.259Z,10.14
2022-11-24T16:46:21.459Z,10.13
2022-11-24T16:48:50.858Z,10.09
2022-11-24T16:51:20.535Z,10.07
2022-11-24T16:53:48.674Z,10.15
2022-11-24T16:56:17.437Z,10.14
2022-11-24T16:58:45.383Z,10.13
2022-11-24T17:01:14.648Z,10.09
2022-11-24T17:03:44.056Z,10.04
2022-11-24T17:06:15.709Z,10.15
2022-11-24T17:08:44.894Z,10.15
2022-11-24T17:11:15.375Z,10.09
2022-11-24T17:13:45.215Z,10.05
2022-11-24T17:16:15.046Z,10.07
2022-11-24T17:18:44.779Z,10.03
2022-11-24T17:21:14.930Z,10.07
2022-11-24T17:23:43.017Z,10.00
2022-11-24T17:26:13.398Z,10.03
2022-11-24T17:28:42.048Z,9.94
2022-11-24T17:31:11.332Z,9.85
2022-11-24T17:33:39.341Z,9.75
2022-11-24T17:36:09.736Z,9.73
2022-11-24T17:38:37.805Z,9.68
2022-11-24T17:41:06.082Z,9.59
2022-11-24T17:43:34.311Z,9.57
2022-11-24T17:46:04.073Z,9.55
2022-11-24T17:48:32.642Z,9.48
2022-11-24T17:51:01.684Z,9.43
2022-11-24T17:53:31.792Z,9.30
2022-11-24T17:56:00.750Z,9.30
2022-11-24T17:58:29.171Z,9.26
2022-11-24T18:00:58.172Z,9.18
2022-11-24T18:03:28.659Z,9.22
2022-11-24T18:05:56.826Z,9.26
2022-11-24T18:08:25.144Z,9.28
2022-11-24T18:10:54.482Z,9.25
2022-11-24T18:13:48.737Z,9.15
2022-11-24T18:16:12.593Z,9.05
2022-11-24T18:18:42.829Z,9.03
2022-11-24T18:21:14.575Z,8.95
2022-11-24T18:23:43.338Z,8.90
2022-11-24T18:26:14.984Z,8.78
2022-11-24T18:28:43.585Z,8.76
2022-11-24T18:31:13.834Z,8.74
2022-11-24T18:33:43.840Z,8.73
2022-11-24T18:36:14.680Z,8.67
2022-11-24T18:38:43.311Z,8.65
2022-11-24T18:41:14.315Z,8.58
2022-11-24T18:43:42.959Z,8.56
2022-11-24T18:46:13.141Z,8.49
2022-11-24T18:48:41.537Z,8.43
2022-11-24T18:51:16.361Z,8.41
2022-11-24T18:53:45.981Z,8.35
2022-11-24T18:56:17.337Z,8.35
2022-11-24T18:58:45.865Z,8.38
2022-11-24T19:01:24.717Z,8.34
2022-11-24T19:03:55.629Z,8.24
2022-11-24T19:06:28.581Z,8.17
2022-11-24T19:08:57.081Z,8.00
2022-11-24T19:11:28.202Z,7.93
2022-11-24T19:13:56.803Z,7.88
2022-11-24T19:16:25.542Z,7.76
2022-11-24T19:18:57.226Z,7.69
2022-11-24T19:21:25.252Z,7.71
2022-11-24T19:23:53.272Z,7.62
2022-11-24T19:26:21.310Z,7.59
2022-11-24T19:28:51.027Z,7.52
2022-11-24T19:31:20.315Z,7.46
2022-11-24T19:33:48.671Z,7.39
2022-11-24T19:36:18.503Z,7.09
2022-11-24T19:38:51.023Z,7.34
2022-11-24T19:41:20.654Z,7.29
2022-11-24T19:43:50.197Z,7.27
2022-11-24T19:46:19.534Z,7.21
2022-11-24T19:48:50.156Z,7.15
2022-11-24T19:51:21.501Z,7.08
2022-11-24T19:53:49.689Z,7.04
2022-11-24T19:56:20.074Z,7.05
2022-11-24T19:58:50.894Z,6.95
2022-11-24T20:01:21.454Z,6.98
2022-11-24T20:03:56.289Z,6.86
2022-11-24T20:06:24.316Z,6.86
2022-11-24T20:08:52.331Z,6.79
2022-11-24T20:11:22.019Z,6.73
2022-11-24T20:13:51.781Z,6.69
2022-11-24T20:16:26.126Z,6.67
2022-11-24T20:18:55.863Z,6.63
2022-11-24T20:21:25.979Z,6.65
2022-11-24T20:23:56.058Z,6.60
2022-11-24T20:26:26.376Z,6.55
2022-11-24T20:28:57.582Z,6.54
2022-11-24T20:31:28.052Z,6.52
2022-11-24T20:33:56.916Z,6.48
2022-11-24T20:36:27.505Z,6.48
2022-11-24T20:38:56.430Z,6.45
2022-11-24T20:41:26.471Z,6.40
2022-11-24T20:43:57.320Z,6.34
2022-11-24T20:46:27.539Z,6.29
2022-11-24T20:48:56.609Z,6.17
2022-11-24T20:51:26.370Z,6.16
2022-11-24T20:53:55.835Z,6.12
2022-11-24T20:56:25.860Z,6.00
2022-11-24T20:58:56.535Z,6.08
2022-11-24T21:01:26.792Z,6.07
2022-11-24T21:03:57.687Z,6.18
2022-11-24T21:06:27.906Z,6.24
2022-11-24T21:09:01.985Z,6.29
2022-11-24T21:11:31.914Z,6.33
2022-11-24T21:14:01.768Z,6.30
2022-11-24T21:16:32.165Z,6.19
2022-11-24T21:19:02.229Z,6.24
2022-11-24T21:21:34.118Z,6.22
2022-11-24T21:24:02.439Z,6.16
2022-11-24T21:26:30.845Z,6.15
2022-11-24T21:28:59.060Z,6.12
2022-11-24T21:31:28.378Z,6.09
2022-11-24T21:33:56.597Z,6.03
2022-11-24T21:36:26.261Z,6.00
2022-11-24T21:38:56.138Z,5.98
2022-11-24T21:41:25.685Z,5.97
2022-11-24T21:43:55.511Z,5.94
2022-11-24T21:46:24.443Z,5.82
2022-11-24T21:48:53.776Z,5.90
2022-11-24T21:51:22.236Z,5.86
2022-11-24T21:53:50.168Z,5.80
2022-11-24T21:56:19.982Z,5.81
2022-11-24T21:58:49.382Z,5.79
2022-11-24T22:01:19.248Z,5.73
2022-11-24T22:03:47.509Z,5.79
2022-11-24T22:06:17.679Z,5.75
2022-11-24T22:08:46.561Z,5.77
2022-11-24T22:11:16.392Z,5.75
2022-11-24T22:13:45.507Z,5.67
2022-11-24T22:16:15.805Z,5.61
2022-11-24T22:18:45.071Z,5.54
2022-11-24T22:21:15.192Z,5.60
2022-11-24T22:23:44.820Z,5.42
2022-11-24T22:26:15.617Z,5.50
2022-11-24T22:28:44.682Z,5.45
2022-11-24T22:31:14.488Z,5.40
2022-11-24T22:33:43.611Z,5.38
2022-11-24T22:36:12.722Z,5.28
2022-11-24T22:38:41.152Z,5.04
2022-11-24T22:41:12.250Z,5.32
2022-11-24T22:43:41.897Z,5.18
2022-11-24T22:46:12.469Z,5.47
2022-11-24T22:48:41.017Z,5.57
2022-11-24T22:51:11.317Z,5.66
2022-11-24T22:53:40.164Z,5.66
2022-11-24T22:56:11.852Z,5.75
2022-11-24T22:58:40.580Z,5.71
2022-11-24T23:01:11.267Z,5.65
2022-11-24T23:03:40.099Z,5.58
2022-11-24T23:06:14.834Z,5.63
2022-11-24T23:08:43.318Z,5.42
2022-11-24T23:11:14.863Z,5.65
2022-11-24T23:13:43.565Z,5.66
2022-11-24T23:16:13.800Z,5.62
2022-11-24T23:18:42.673Z,5.65
2022-11-24T23:21:14.661Z,5.56
2022-11-24T23:23:43.418Z,5.56
2022-11-24T23:26:14.574Z,5.51
2022-11-24T23:28:43.106Z,5.44
2022-11-24T23:31:13.996Z,5.35
2022-11-24T23:33:42.367Z,5.32
2022-11-24T23:36:12.214Z,5.31
2022-11-24T23:38:40.981Z,5.33
2022-11-24T23:41:12.021Z,5.40
2022-11-24T23:43:42.521Z,5.40
2022-11-24T23:46:12.269Z,5.31
2022-11-24T23:48:40.864Z,5.37
2022-11-24T23:51:11.311Z,5.42
2022-11-24T23:53:39.949Z,5.37
2022-11-24T23:56:09.026Z,5.35
2022-11-24T23:58:36.940Z,5.39
